Time;durP1;ratioP1;P1;durP2;ratioP2;P2;SDS_P1;SDS_P2;PMS_P1;PMS_P2;Temp;Humidity;BMP_temperature;BMP_pressure;BME280_temperature;BME280_humidity;BME280_pressure;Samples;Min_cycle;Max_cycle;Signal;HPM_P1;HPM_P2
2022/03/23 00:01:37;;;;;;;8.20;6.53;;;5.60;61.00;;;;;;5070214;28;20209;-78
2022/03/23 00:04:03;;;;;;;7.63;6.77;;;5.50;61.40;;;;;;5070172;28;20799;-78
2022/03/23 00:06:29;;;;;;;8.70;6.60;;;5.50;61.30;;;;;;5071684;28;20421;-79
2022/03/23 00:08:55;;;;;;;7.10;6.13;;;5.60;61.70;;;;;;5068981;28;20352;-76
2022/03/23 00:11:20;;;;;;;9.03;6.33;;;5.60;61.60;;;;;;5068749;28;20433;-76
2022/03/23 00:13:46;;;;;;;9.37;6.53;;;5.60;62.70;;;;;;5068673;28;20183;-77
2022/03/23 00:16:13;;;;;;;8.87;6.50;;;5.50;63.30;;;;;;5070437;28;20532;-77
2022/03/23 00:18:38;;;;;;;10.40;6.70;;;5.40;63.30;;;;;;5069890;28;20460;-76
2022/03/23 00:21:04;;;;;;;9.57;6.13;;;5.40;63.60;;;;;;5069986;28;20414;-76
2022/03/23 00:23:30;;;;;;;8.83;5.93;;;5.40;62.90;;;;;;5069976;28;20602;-76
2022/03/23 00:25:55;;;;;;;8.73;6.47;;;5.30;63.80;;;;;;5068472;28;20440;-76
2022/03/23 00:28:21;;;;;;;10.27;7.00;;;5.30;62.70;;;;;;5069938;28;20478;-76
2022/03/23 00:30:50;;;;;;;8.30;6.60;;;5.20;63.00;;;;;;5068318;28;20543;-75
2022/03/23 00:33:16;;;;;;;8.23;6.37;;;5.30;63.10;;;;;;5069615;28;20204;-76
2022/03/23 00:35:42;;;;;;;8.90;6.43;;;5.20;63.30;;;;;;5068143;28;20466;-76
2022/03/23 00:38:08;;;;;;;46.70;18.70;;;5.20;63.60;;;;;;5069643;28;20257;-76
2022/03/23 00:40:34;;;;;;;13.00;7.50;;;5.30;62.60;;;;;;5069559;28;21040;-76
2022/03/23 00:43:01;;;;;;;13.83;7.80;;;5.40;60.10;;;;;;5069788;28;20179;-76
2022/03/23 00:45:27;;;;;;;10.20;6.93;;;5.50;60.10;;;;;;5069377;28;20185;-75
2022/03/23 00:47:53;;;;;;;7.97;6.57;;;5.40;61.00;;;;;;5069477;28;20417;-75
2022/03/23 00:50:18;;;;;;;7.97;6.63;;;5.40;62.00;;;;;;5067999;28;20460;-77
2022/03/23 00:52:47;;;;;;;9.27;6.50;;;5.30;62.30;;;;;;5068283;28;20215;-77
2022/03/23 00:55:14;;;;;;;8.80;6.70;;;5.30;65.20;;;;;;5069548;28;20183;-78
2022/03/23 00:57:39;;;;;;;7.87;6.80;;;5.20;65.10;;;;;;5053131;28;20444;-77
2022/03/23 01:00:10;;;;;;;10.47;7.47;;;5.10;65.90;;;;;;5069504;28;20989;-77
2022/03/23 01:02:36;;;;;;;8.33;6.63;;;5.00;66.60;;;;;;5068168;28;20175;-77
2022/03/23 01:05:02;;;;;;;7.60;6.03;;;5.00;67.00;;;;;;5068409;28;20418;-76
2022/03/23 01:07:28;;;;;;;10.13;6.57;;;4.90;68.40;;;;;;5069287;28;20179;-75
2022/03/23 01:09:53;;;;;;;9.87;7.43;;;4.90;68.10;;;;;;5067774;28;20950;-76
2022/03/23 01:12:19;;;;;;;10.30;6.73;;;4.90;68.60;;;;;;5069246;28;20222;-75
2022/03/23 01:14:44;;;;;;;7.70;6.37;;;4.80;69.60;;;;;;5069343;28;20734;-76
2022/03/23 01:17:10;;;;;;;8.57;6.80;;;4.80;70.60;;;;;;5067663;28;20681;-75
2022/03/23 01:19:36;;;;;;;10.90;7.47;;;4.80;67.40;;;;;;5068933;28;20218;-76
2022/03/23 01:22:02;;;;;;;9.83;6.53;;;4.80;64.60;;;;;;5068987;28;20414;-76
2022/03/23 01:24:28;;;;;;;8.73;6.27;;;4.80;64.40;;;;;;5067584;28;20214;-76
2022/03/23 01:26:53;;;;;;;9.87;5.43;;;4.90;65.00;;;;;;5069340;28;20570;-75
2022/03/23 01:29:19;;;;;;;7.20;6.13;;;4.90;65.80;;;;;;5050751;28;21032;-76
2022/03/23 01:31:46;;;;;;;9.90;7.10;;;4.90;65.40;;;;;;5069018;28;20268;-76
2022/03/23 01:34:12;;;;;;;12.80;6.60;;;4.90;65.40;;;;;;5068801;28;20183;-76
2022/03/23 01:36:37;;;;;;;11.60;7.17;;;4.80;67.20;;;;;;5069165;28;20937;-75
2022/03/23 01:39:03;;;;;;;7.83;6.60;;;4.80;68.60;;;;;;5068577;28;20210;-75
2022/03/23 01:41:33;;;;;;;7.83;5.87;;;4.70;69.10;;;;;;5069053;28;20627;-75
2022/03/23 01:43:59;;;;;;;8.33;6.37;;;4.60;70.30;;;;;;5067752;28;20412;-76
2022/03/23 01:46:26;;;;;;;10.13;7.00;;;4.50;70.20;;;;;;5068675;28;20417;-76
2022/03/23 01:48:51;;;;;;;11.10;6.40;;;4.50;72.60;;;;;;5068275;28;20205;-75
2022/03/23 01:51:17;;;;;;;10.43;7.07;;;4.50;72.00;;;;;;5068815;28;20413;-75
2022/03/23 01:53:43;;;;;;;11.03;6.70;;;4.40;73.00;;;;;;5068604;28;20264;-76
2022/03/23 01:56:11;;;;;;;8.60;6.63;;;4.40;73.90;;;;;;5068450;28;20312;-76
2022/03/23 01:58:37;;;;;;;10.63;7.03;;;4.40;73.50;;;;;;5068487;28;20203;-76
2022/03/23 02:01:03;;;;;;;8.13;6.97;;;4.40;73.60;;;;;;5068631;28;20421;-77
2022/03/23 02:03:29;;;;;;;7.53;6.23;;;4.40;74.10;;;;;;5067108;28;20471;-77
2022/03/23 02:05:55;;;;;;;9.50;7.23;;;4.20;75.20;;;;;;5067254;28;20418;-77
2022/03/23 02:08:21;;;;;;;9.33;7.07;;;4.20;75.70;;;;;;5068634;28;20187;-77
2022/03/23 02:10:46;;;;;;;7.97;6.63;;;4.10;75.00;;;;;;5068518;28;20207;-78
2022/03/23 02:13:12;;;;;;;12.03;7.40;;;4.00;75.80;;;;;;5068559;28;20400;-77
2022/03/23 02:15:38;;;;;;;11.30;6.90;;;4.00;75.40;;;;;;5068654;28;20209;-78
2022/03/23 02:18:06;;;;;;;12.20;7.73;;;4.00;74.50;;;;;;5068581;28;20431;-77
2022/03/23 02:20:32;;;;;;;12.88;7.13;;;4.00;75.70;;;;;;5067076;28;20225;-77
2022/03/23 02:22:58;;;;;;;10.50;7.80;;;3.90;76.30;;;;;;5068507;28;20552;-78
2022/03/23 02:25:26;;;;;;;9.60;7.20;;;3.90;77.50;;;;;;5068623;28;20417;-77
2022/03/23 02:27:53;;;;;;;9.67;7.07;;;3.80;78.80;;;;;;5068332;28;20427;-75
2022/03/23 02:30:19;;;;;;;9.10;7.27;;;3.80;79.00;;;;;;5068358;28;21098;-76
2022/03/23 02:32:45;;;;;;;9.50;6.60;;;3.60;80.10;;;;;;5068340;28;20431;-75
2022/03/23 02:35:11;;;;;;;9.00;7.20;;;3.60;80.20;;;;;;5068256;28;20508;-76
2022/03/23 02:37:41;;;;;;;9.15;7.03;;;3.50;79.00;;;;;;5068446;28;20933;-76
2022/03/23 02:40:08;;;;;;;8.30;6.63;;;3.50;78.30;;;;;;5066557;28;20238;-75
2022/03/23 02:42:35;;;;;;;11.70;7.83;;;3.60;77.30;;;;;;5066865;28;20698;-75
2022/03/23 02:45:00;;;;;;;10.85;7.20;;;3.70;77.50;;;;;;5068177;28;20430;-75
2022/03/23 02:47:26;;;;;;;9.67;7.27;;;3.80;80.00;;;;;;5068282;28;20193;-77
2022/03/23 02:49:51;;;;;;;9.67;7.10;;;3.70;80.40;;;;;;5067815;28;20201;-77
2022/03/23 02:52:17;;;;;;;12.10;7.00;;;3.60;81.30;;;;;;5068192;28;20192;-76
2022/03/23 03:03:18;;;;;;;11.10;6.80;;;3.50;81.60;;;;;;5071700;28;20600;-75
2022/03/23 03:05:44;;;;;;;10.50;7.03;;;3.50;82.00;;;;;;5071710;28;20268;-75
2022/03/23 03:10:54;;;;;;;11.02;7.85;;;3.40;84.20;;;;;;5071760;28;20217;-75
2022/03/23 03:13:20;;;;;;;9.47;7.07;;;3.40;83.20;;;;;;5071683;28;20187;-75
2022/03/23 03:15:46;;;;;;;11.10;7.53;;;3.50;83.70;;;;;;5070249;28;20246;-76
2022/03/23 03:18:12;;;;;;;8.60;7.30;;;3.50;84.80;;;;;;5070192;28;20633;-75
2022/03/23 03:20:38;;;;;;;12.73;8.07;;;3.40;84.80;;;;;;5053379;28;20219;-75
2022/03/23 03:23:03;;;;;;;12.50;8.20;;;3.40;84.00;;;;;;5071630;28;20180;-75
2022/03/23 03:25:29;;;;;;;13.07;7.93;;;3.40;84.50;;;;;;5071233;28;20182;-75
2022/03/23 03:27:55;;;;;;;8.53;6.87;;;3.50;84.70;;;;;;5071373;28;20270;-75
2022/03/23 03:30:20;;;;;;;8.67;6.80;;;3.40;84.80;;;;;;5069555;28;20214;-75
2022/03/23 03:36:08;;;;;;;15.18;7.40;;;3.30;85.30;;;;;;5071002;28;20272;-75
2022/03/23 03:38:36;;;;;;;12.80;7.47;;;3.40;86.10;;;;;;5070760;28;20698;-76
2022/03/23 03:41:03;;;;;;;10.27;6.45;;;3.30;86.70;;;;;;5071016;28;20193;-75
2022/03/23 03:43:30;;;;;;;11.15;7.72;;;3.20;87.20;;;;;;5070811;28;20196;-75
2022/03/23 03:45:56;;;;;;;13.82;7.57;;;3.20;88.30;;;;;;5070907;28;20176;-75
2022/03/23 03:48:21;;;;;;;14.67;7.60;;;3.20;88.10;;;;;;5070756;28;20190;-75
2022/03/23 03:50:47;;;;;;;9.90;6.83;;;3.10;87.70;;;;;;5070883;28;20939;-75
2022/03/23 03:53:13;;;;;;;8.70;6.97;;;3.10;87.30;;;;;;5071001;28;20188;-75
2022/03/23 03:55:40;;;;;;;9.97;7.73;;;3.10;87.20;;;;;;5071088;28;20186;-75
2022/03/23 03:58:08;;;;;;;9.55;7.03;;;3.10;88.20;;;;;;5071335;28;20452;-75
2022/03/23 04:00:34;;;;;;;14.00;8.40;;;3.00;89.00;;;;;;5071191;28;20250;-76
2022/03/23 04:03:00;;;;;;;10.48;8.18;;;3.00;90.00;;;;;;5071319;28;20174;-75
2022/03/23 04:05:28;;;;;;;11.32;8.23;;;2.90;88.90;;;;;;5071318;28;20196;-76
2022/03/23 04:07:55;;;;;;;12.32;7.55;;;2.90;89.00;;;;;;5069898;28;20180;-75
2022/03/23 04:10:21;;;;;;;10.40;6.95;;;2.80;89.10;;;;;;5070630;28;20296;-75
2022/03/23 04:12:47;;;;;;;10.38;7.95;;;2.90;88.60;;;;;;5072147;28;20330;-77
2022/03/23 04:15:14;;;;;;;13.57;8.57;;;2.90;89.00;;;;;;5053211;28;20283;-77
2022/03/23 04:17:40;;;;;;;13.70;7.70;;;2.90;90.00;;;;;;5069621;28;20199;-76
2022/03/23 04:20:07;;;;;;;11.95;8.20;;;2.80;90.00;;;;;;5069599;28;20229;-75
2022/03/23 04:22:33;;;;;;;10.60;7.50;;;2.80;89.80;;;;;;5070674;28;20187;-76
2022/03/23 04:24:59;;;;;;;8.90;7.60;;;2.80;90.10;;;;;;5069293;28;20197;-77
2022/03/23 04:27:25;;;;;;;12.70;8.93;;;2.70;90.40;;;;;;5070322;28;20424;-76
2022/03/23 04:29:50;;;;;;;10.90;8.43;;;2.70;90.60;;;;;;5070083;28;20985;-76
2022/03/23 04:32:16;;;;;;;10.97;8.20;;;2.60;90.40;;;;;;5052014;28;20200;-76
2022/03/23 04:34:41;;;;;;;14.20;8.47;;;2.60;90.70;;;;;;5068595;28;20188;-76
2022/03/23 04:37:07;;;;;;;12.30;7.10;;;2.70;91.30;;;;;;5068551;28;20187;-76
2022/03/23 04:39:33;;;;;;;11.03;8.07;;;2.50;91.00;;;;;;5070060;28;20368;-76
2022/03/23 04:41:59;;;;;;;11.57;8.30;;;2.50;90.70;;;;;;5051691;28;20213;-76
2022/03/23 04:44:25;;;;;;;15.35;8.50;;;2.40;90.90;;;;;;5068551;28;20190;-76
2022/03/23 04:46:50;;;;;;;14.60;8.20;;;2.40;90.90;;;;;;5069742;28;20185;-76
2022/03/23 04:49:16;;;;;;;12.83;8.00;;;2.40;91.10;;;;;;5069502;28;20449;-76
2022/03/23 04:51:42;;;;;;;13.30;8.37;;;2.30;91.50;;;;;;5068031;28;20291;-77
2022/03/23 04:54:07;;;;;;;11.00;8.10;;;2.30;91.50;;;;;;5069541;28;20188;-76
2022/03/23 04:56:33;;;;;;;15.73;9.73;;;2.20;92.10;;;;;;5069501;28;20267;-76
2022/03/23 04:58:59;;;;;;;15.00;9.10;;;2.30;91.90;;;;;;5069473;28;20594;-76
2022/03/23 05:01:25;;;;;;;13.68;8.60;;;2.30;91.60;;;;;;5069739;28;20634;-76
2022/03/23 05:03:52;;;;;;;12.63;8.70;;;2.40;91.60;;;;;;5068073;28;20189;-76
2022/03/23 05:06:21;;;;;;;11.25;7.57;;;2.40;91.20;;;;;;5068181;28;20461;-76
2022/03/23 05:08:46;;;;;;;11.93;7.72;;;2.40;91.40;;;;;;5067886;28;20276;-76
2022/03/23 05:11:12;;;;;;;13.97;7.53;;;2.40;91.10;;;;;;5069238;28;20286;-76
2022/03/23 05:13:38;;;;;;;10.20;7.80;;;2.40;91.50;;;;;;5069273;28;20189;-76
2022/03/23 05:16:03;;;;;;;12.60;7.90;;;2.40;91.50;;;;;;5067453;28;20606;-76
2022/03/23 05:18:29;;;;;;;28.17;8.87;;;2.40;91.40;;;;;;5068361;28;20180;-76
2022/03/23 05:20:55;;;;;;;14.03;8.60;;;2.40;91.70;;;;;;5068622;28;20413;-76
2022/03/23 05:23:21;;;;;;;9.83;7.73;;;2.40;92.20;;;;;;5066465;28;20242;-76
2022/03/23 05:25:46;;;;;;;9.17;7.33;;;2.30;92.30;;;;;;5068363;28;20186;-76
2022/03/23 05:28:13;;;;;;;15.10;8.87;;;2.30;92.30;;;;;;5066598;28;20264;-76
2022/03/23 05:30:39;;;;;;;16.05;9.00;;;2.30;92.50;;;;;;5066742;28;20443;-76
2022/03/23 05:33:04;;;;;;;11.30;8.17;;;2.20;92.80;;;;;;5067698;28;20212;-76
2022/03/23 05:35:30;;;;;;;10.70;8.20;;;2.20;93.30;;;;;;5049604;28;20315;-76
2022/03/23 05:37:56;;;;;;;17.67;8.47;;;2.20;93.10;;;;;;5067719;28;20189;-76
2022/03/23 05:40:21;;;;;;;17.40;8.30;;;2.30;93.00;;;;;;5067612;28;20689;-76
2022/03/23 05:42:48;;;;;;;17.90;8.00;;;2.30;93.10;;;;;;5067492;28;20254;-76
2022/03/23 05:45:14;;;;;;;11.63;8.93;;;2.30;93.30;;;;;;5067623;28;20762;-76
2022/03/23 05:47:40;;;;;;;15.20;8.20;;;2.30;93.50;;;;;;5067577;28;20557;-76
2022/03/23 05:50:08;;;;;;;11.13;7.50;;;2.30;93.50;;;;;;5067259;28;20204;-76
2022/03/23 05:52:34;;;;;;;12.02;7.85;;;2.30;93.30;;;;;;5067259;28;20188;-76
2022/03/23 05:55:01;;;;;;;11.57;9.00;;;2.30;93.30;;;;;;5067528;28;20556;-76
2022/03/23 05:57:27;;;;;;;13.05;8.38;;;2.30;93.30;;;;;;5067462;28;20185;-76
2022/03/23 05:59:53;;;;;;;11.80;8.45;;;2.40;93.30;;;;;;5067454;28;20253;-76
2022/03/23 06:02:19;;;;;;;24.90;9.60;;;2.40;93.20;;;;;;5065870;28;20181;-76
2022/03/23 06:04:46;;;;;;;10.43;8.27;;;2.60;93.00;;;;;;5065639;28;20433;-76
2022/03/23 06:07:12;;;;;;;12.70;8.60;;;2.60;92.80;;;;;;5067292;28;21018;-76
2022/03/23 06:09:38;;;;;;;15.32;9.25;;;2.80;93.00;;;;;;5067098;28;20860;-76
2022/03/23 06:12:04;;;;;;;25.83;9.57;;;2.80;93.10;;;;;;5067083;28;20303;-76
2022/03/23 06:14:30;;;;;;;22.88;9.75;;;3.20;93.30;;;;;;5065582;28;20429;-76
2022/03/23 06:16:55;;;;;;;12.57;9.03;;;3.90;92.00;;;;;;5067257;28;20189;-76
2022/03/23 06:19:21;;;;;;;17.77;9.20;;;4.70;89.20;;;;;;5067006;28;20218;-76
2022/03/23 06:21:47;;;;;;;14.43;9.20;;;5.50;86.40;;;;;;5067089;28;20243;-76
2022/03/23 06:24:12;;;;;;;49.97;12.20;;;6.20;82.80;;;;;;5065502;28;20572;-76
2022/03/23 06:26:38;;;;;;;20.07;9.03;;;6.80;79.20;;;;;;5066812;28;20626;-76
2022/03/23 06:29:04;;;;;;;13.07;8.53;;;7.30;79.10;;;;;;5065315;28;20522;-76
2022/03/23 06:31:30;;;;;;;13.13;9.10;;;7.60;77.30;;;;;;5065760;28;20432;-76
2022/03/23 06:33:56;;;;;;;15.87;9.70;;;7.80;76.70;;;;;;5069150;28;20222;-76
2022/03/23 06:36:21;;;;;;;13.17;9.73;;;8.00;75.50;;;;;;5069965;28;20433;-76
2022/03/23 06:38:48;;;;;;;13.47;9.53;;;8.20;73.30;;;;;;5070053;28;20219;-76
2022/03/23 06:41:14;;;;;;;17.10;10.97;;;8.50;71.30;;;;;;5070137;28;20616;-76
2022/03/23 06:43:40;;;;;;;14.17;10.60;;;8.70;69.40;;;;;;5070398;28;20421;-76
2022/03/23 06:46:05;;;;;;;19.67;9.60;;;9.00;69.00;;;;;;5071440;28;20706;-76
2022/03/23 06:48:31;;;;;;;16.50;10.70;;;9.30;68.90;;;;;;5053051;28;20235;-76
2022/03/23 06:50:57;;;;;;;13.27;9.23;;;9.30;66.40;;;;;;5070969;28;20212;-76
2022/03/23 06:53:22;;;;;;;14.40;9.80;;;9.40;66.40;;;;;;5069270;28;20871;-76
2022/03/23 06:55:48;;;;;;;16.73;11.43;;;9.80;66.10;;;;;;5070727;28;20184;-76
2022/03/23 06:58:14;;;;;;;17.03;10.60;;;9.50;65.90;;;;;;5069350;28;20479;-76
2022/03/23 07:00:39;;;;;;;16.00;10.77;;;9.50;65.90;;;;;;5052572;28;20477;-76
2022/03/23 07:03:05;;;;;;;17.10;12.50;;;9.70;65.80;;;;;;5069522;28;20232;-76
2022/03/23 07:05:31;;;;;;;22.47;11.97;;;9.90;65.20;;;;;;5070811;28;20186;-76
2022/03/23 07:10:41;;;;;;;19.37;13.50;;;9.90;64.50;;;;;;5069547;28;20552;-76
2022/03/23 07:13:06;;;;;;;17.40;13.00;;;10.00;63.00;;;;;;5069604;28;20525;-76
2022/03/23 07:15:32;;;;;;;29.03;15.90;;;10.30;62.50;;;;;;5071557;28;20277;-76
2022/03/23 07:17:58;;;;;;;18.40;14.17;;;10.10;64.00;;;;;;5071179;28;20344;-76
2022/03/23 07:20:24;;;;;;;16.80;12.20;;;10.00;62.60;;;;;;5070731;28;20223;-76
2022/03/23 07:22:50;;;;;;;21.00;14.13;;;10.30;62.30;;;;;;5070854;28;20710;-76
2022/03/23 07:25:15;;;;;;;22.43;13.90;;;10.60;61.20;;;;;;5052610;28;20425;-76
2022/03/23 07:27:41;;;;;;;24.23;14.70;;;10.50;60.20;;;;;;5070891;28;20201;-76
2022/03/23 07:30:08;;;;;;;21.87;14.10;;;10.60;59.90;;;;;;5070358;28;20215;-76
2022/03/23 07:32:34;;;;;;;18.80;14.10;;;10.70;60.80;;;;;;5070702;28;20839;-76
2022/03/23 07:35:00;;;;;;;23.30;14.57;;;10.80;60.80;;;;;;5070308;28;20803;-76
2022/03/23 07:37:26;;;;;;;20.07;14.47;;;11.20;58.10;;;;;;5070485;28;20421;-76
2022/03/23 07:39:51;;;;;;;22.40;13.47;;;11.40;58.00;;;;;;5070365;28;20214;-76
2022/03/23 07:42:17;;;;;;;20.10;13.47;;;11.40;56.10;;;;;;5070283;28;20274;-76
2022/03/23 07:44:43;;;;;;;17.97;13.07;;;11.20;56.90;;;;;;5069717;28;20186;-76
2022/03/23 07:47:12;;;;;;;16.27;12.50;;;11.00;56.40;;;;;;5068592;28;20217;-76
2022/03/23 07:49:39;;;;;;;18.70;13.67;;;10.90;58.10;;;;;;5069072;28;20276;-76
2022/03/23 07:52:05;;;;;;;27.50;12.37;;;10.90;58.10;;;;;;5070366;28;20938;-76
2022/03/23 07:54:31;;;;;;;15.53;12.00;;;11.00;58.70;;;;;;5070225;28;20421;-76
2022/03/23 07:56:57;;;;;;;18.07;12.67;;;11.10;58.20;;;;;;5068750;28;20811;-76
2022/03/23 07:59:23;;;;;;;17.30;13.57;;;11.50;57.50;;;;;;5067863;28;21070;-76
2022/03/23 08:01:48;;;;;;;15.97;11.10;;;11.40;55.80;;;;;;5069371;28;20428;-76
2022/03/23 08:04:14;;;;;;;20.93;12.90;;;11.70;56.20;;;;;;5069157;28;20195;-76
2022/03/23 08:06:40;;;;;;;14.00;10.37;;;11.90;55.50;;;;;;5069644;28;20181;-76
2022/03/23 08:09:06;;;;;;;16.60;11.20;;;11.80;55.50;;;;;;5069788;28;20295;-76
2022/03/23 08:11:32;;;;;;;14.77;11.60;;;11.90;56.70;;;;;;5069719;28;20652;-76
2022/03/23 08:13:58;;;;;;;16.03;11.50;;;12.10;57.10;;;;;;5069756;28;20432;-76
2022/03/23 08:16:24;;;;;;;19.33;11.50;;;12.30;56.30;;;;;;5069663;28;20476;-76
2022/03/23 08:18:52;;;;;;;18.80;12.93;;;12.40;57.10;;;;;;5069836;28;21017;-76
2022/03/23 08:21:19;;;;;;;22.00;12.47;;;12.50;55.20;;;;;;5067845;28;20505;-76
2022/03/23 08:23:45;;;;;;;16.53;12.50;;;12.70;56.30;;;;;;5069204;28;20419;-76
2022/03/23 08:26:14;;;;;;;17.30;13.00;;;13.00;56.40;;;;;;5069338;28;20511;-76
2022/03/23 08:28:40;;;;;;;16.17;12.43;;;13.20;55.60;;;;;;5069199;28;20415;-76
2022/03/23 08:31:06;;;;;;;18.60;12.13;;;13.50;55.10;;;;;;5067652;28;20423;-76
2022/03/23 08:33:34;;;;;;;21.40;12.83;;;13.70;54.40;;;;;;5069145;28;20457;-76
2022/03/23 08:36:04;;;;;;;20.70;12.30;;;13.90;53.50;;;;;;5069230;28;20189;-76
2022/03/23 08:38:30;;;;;;;14.10;11.27;;;14.20;53.00;;;;;;5068768;28;20832;-76
2022/03/23 08:40:56;;;;;;;18.13;11.50;;;14.60;53.60;;;;;;5067141;28;20440;-76
2022/03/23 08:43:23;;;;;;;21.37;11.83;;;14.60;52.20;;;;;;5068477;28;20412;-76
2022/03/23 08:45:49;;;;;;;17.37;12.60;;;14.80;53.00;;;;;;5068547;28;20515;-76
2022/03/23 08:48:14;;;;;;;15.20;10.47;;;15.10;50.80;;;;;;5068385;28;20422;-76
2022/03/23 08:50:40;;;;;;;16.17;10.50;;;15.30;50.10;;;;;;5068347;28;20444;-76
2022/03/23 08:53:07;;;;;;;19.77;11.57;;;15.80;49.20;;;;;;5068534;28;20221;-76
2022/03/23 08:55:33;;;;;;;17.33;10.43;;;15.90;50.10;;;;;;5066529;28;20594;-76
2022/03/23 08:57:59;;;;;;;19.90;12.37;;;16.20;49.20;;;;;;5067989;28;20433;-76
2022/03/23 09:00:24;;;;;;;14.47;11.20;;;16.50;46.90;;;;;;5068292;28;20476;-76
2022/03/23 09:02:51;;;;;;;18.00;11.20;;;16.80;47.60;;;;;;5068484;28;20526;-76
2022/03/23 09:05:18;;;;;;;21.03;11.00;;;17.10;48.30;;;;;;5068799;28;20183;-76
2022/03/23 09:07:44;;;;;;;17.43;11.90;;;17.40;46.60;;;;;;5068553;28;20889;-76
2022/03/23 09:10:13;;;;;;;23.70;12.47;;;17.90;47.00;;;;;;5068164;28;20797;-77
2022/03/23 09:12:38;;;;;;;12.77;10.50;;;18.20;46.60;;;;;;5068243;28;20201;-76
2022/03/23 09:15:06;;;;;;;18.80;11.53;;;18.60;45.70;;;;;;5066466;28;20428;-77
2022/03/23 09:17:32;;;;;;;16.17;11.43;;;19.20;45.10;;;;;;5067755;28;20459;-76
2022/03/23 09:20:00;;;;;;;24.30;13.47;;;19.70;44.30;;;;;;5067984;28;20505;-76
2022/03/23 09:22:27;;;;;;;18.30;12.70;;;19.80;44.10;;;;;;5068445;28;21049;-77
2022/03/23 09:24:53;;;;;;;18.43;12.57;;;20.00;42.70;;;;;;5068521;28;20513;-77
2022/03/23 09:27:18;;;;;;;18.27;12.83;;;20.10;41.30;;;;;;5068351;28;20560;-77
2022/03/23 09:29:45;;;;;;;20.83;12.13;;;20.20;40.60;;;;;;5068039;28;20693;-77
2022/03/23 09:32:12;;;;;;;23.63;12.67;;;20.40;41.10;;;;;;5067846;28;20189;-77
2022/03/23 09:34:39;;;;;;;15.33;12.23;;;20.70;39.40;;;;;;5067987;28;20432;-77
2022/03/23 09:39:50;;;;;;;16.50;11.87;;;20.70;40.00;;;;;;5066265;28;20475;-77
2022/03/23 09:42:18;;;;;;;17.73;12.63;;;21.10;40.00;;;;;;5067150;28;20451;-77
2022/03/23 09:44:46;;;;;;;15.80;11.50;;;21.00;39.20;;;;;;5065623;28;20431;-77
2022/03/23 09:47:11;;;;;;;17.57;12.00;;;21.10;39.60;;;;;;5067291;28;20425;-76
2022/03/23 09:49:38;;;;;;;17.13;12.47;;;21.30;39.00;;;;;;5067233;28;20450;-77
2022/03/23 09:52:05;;;;;;;16.07;12.10;;;21.70;38.60;;;;;;5067231;28;20623;-77
2022/03/23 09:54:31;;;;;;;14.40;12.70;;;21.60;36.60;;;;;;5066019;28;20427;-77
2022/03/23 09:56:56;;;;;;;17.87;13.17;;;22.00;38.40;;;;;;5066024;28;20834;-77
2022/03/23 09:59:22;;;;;;;16.73;11.57;;;22.20;37.10;;;;;;5067316;28;20233;-77
2022/03/23 10:01:49;;;;;;;20.67;11.30;;;22.10;36.40;;;;;;5066051;28;20191;-77
2022/03/23 10:04:20;;;;;;;17.43;11.10;;;22.30;35.20;;;;;;5067199;28;20186;-77
2022/03/23 10:07:06;;;;;;;14.13;11.53;;;22.00;34.30;;;;;;5065450;28;20421;-77
2022/03/23 10:10:09;;;;;;;18.53;12.03;;;22.50;32.50;;;;;;5066732;28;20825;-77
2022/03/23 10:13:08;;;;;;;16.03;13.27;;;22.40;32.80;;;;;;5067031;28;20530;-77
2022/03/23 10:16:11;;;;;;;20.40;12.03;;;22.60;34.00;;;;;;5065561;28;20453;-77
2022/03/23 10:18:53;;;;;;;13.00;11.70;;;22.80;32.50;;;;;;5066559;28;20420;-77
2022/03/23 10:21:42;;;;;;;16.07;11.40;;;22.80;32.20;;;;;;5065161;28;20424;-77
2022/03/23 10:24:07;;;;;;;13.23;11.13;;;22.50;32.70;;;;;;5067092;28;20914;-77
2022/03/23 10:26:36;;;;;;;15.20;11.80;;;22.90;33.60;;;;;;5066912;28;20459;-77
2022/03/23 10:29:03;;;;;;;16.97;11.47;;;22.80;32.70;;;;;;5066655;28;20202;-77
2022/03/23 10:31:29;;;;;;;13.67;12.10;;;22.60;32.10;;;;;;5067001;28;20494;-75
2022/03/23 10:34:08;;;;;;;14.50;11.30;;;22.70;31.10;;;;;;5066615;28;20428;-77
2022/03/23 10:36:51;;;;;;;14.10;11.37;;;23.00;31.70;;;;;;5066647;28;20428;-75
2022/03/23 10:39:18;;;;;;;14.33;11.10;;;22.80;30.60;;;;;;5066412;28;20469;-77
2022/03/23 10:41:53;;;;;;;16.87;12.07;;;23.10;32.20;;;;;;5066673;28;20418;-77
2022/03/23 10:44:19;;;;;;;18.60;11.77;;;23.30;31.40;;;;;;5066544;28;20927;-77
2022/03/23 10:46:46;;;;;;;12.97;11.67;;;23.40;31.10;;;;;;5066986;28;20569;-77
2022/03/23 10:49:15;;;;;;;19.10;11.37;;;23.20;31.00;;;;;;5066701;28;20206;-77
2022/03/23 10:51:42;;;;;;;13.70;11.50;;;23.90;30.60;;;;;;5067378;28;20418;-77
2022/03/23 10:54:20;;;;;;;22.63;11.90;;;23.90;30.00;;;;;;5067342;28;20914;-77
2022/03/23 10:56:46;;;;;;;21.13;13.00;;;23.90;30.20;;;;;;5067383;28;20510;-76
2022/03/23 10:59:53;;;;;;;18.40;12.77;;;24.10;30.80;;;;;;5067452;28;20468;-76
2022/03/23 11:02:18;;;;;;;19.23;11.77;;;24.20;30.80;;;;;;5067548;28;20413;-77
2022/03/23 11:04:47;;;;;;;18.83;11.60;;;24.10;30.00;;;;;;5065948;28;20587;-77
2022/03/23 11:07:30;;;;;;;14.80;11.10;;;24.10;29.70;;;;;;5067540;28;20652;-77
2022/03/23 11:15:49;;;;;;;15.23;11.17;;;24.40;30.00;;;;;;5066983;28;20408;-77
2022/03/23 11:18:20;;;;;;;15.73;10.60;;;24.50;28.20;;;;;;5065567;28;20437;-78
2022/03/23 11:20:54;;;;;;;13.43;10.37;;;24.60;28.40;;;;;;5068264;28;20466;-77
2022/03/23 11:23:25;;;;;;;14.80;11.13;;;24.20;27.30;;;;;;5070483;28;21282;-77
2022/03/23 11:25:53;;;;;;;12.03;10.10;;;23.90;27.00;;;;;;5070062;28;20913;-77
2022/03/23 11:28:20;;;;;;;11.03;9.23;;;24.30;27.20;;;;;;5069886;28;20426;-75
2022/03/23 11:30:48;;;;;;;12.43;8.80;;;24.30;26.00;;;;;;5069835;28;20529;-77
2022/03/23 11:33:21;;;;;;;10.10;8.23;;;24.50;26.60;;;;;;5068844;28;20422;-76
2022/03/23 11:35:48;;;;;;;11.17;8.40;;;24.50;25.70;;;;;;5052934;28;20444;-77
2022/03/23 11:38:18;;;;;;;15.10;9.17;;;24.40;25.40;;;;;;5070264;28;20430;-77
2022/03/23 11:40:46;;;;;;;11.30;8.67;;;24.50;25.20;;;;;;5070151;28;21022;-76
2022/03/23 11:43:13;;;;;;;17.73;8.77;;;24.60;24.40;;;;;;5070414;28;20414;-77
2022/03/23 11:45:40;;;;;;;11.30;10.10;;;24.50;25.10;;;;;;5052082;28;20522;-77
2022/03/23 11:48:23;;;;;;;12.40;8.97;;;24.50;24.50;;;;;;5070239;28;20413;-77
2022/03/23 11:51:15;;;;;;;10.27;9.17;;;24.60;25.40;;;;;;5070444;28;20487;-75
2022/03/23 11:53:58;;;;;;;10.20;8.73;;;24.40;25.90;;;;;;5068691;28;20471;-75
2022/03/23 11:56:35;;;;;;;13.13;9.73;;;24.40;25.90;;;;;;5070092;28;21059;-76
2022/03/23 11:59:22;;;;;;;12.90;8.70;;;24.10;25.30;;;;;;5069918;28;20457;-75
2022/03/23 12:01:50;;;;;;;13.13;9.60;;;24.10;24.50;;;;;;5068565;28;20444;-77
2022/03/23 12:04:27;;;;;;;9.00;8.10;;;24.10;24.60;;;;;;5068399;28;21239;-78
2022/03/23 12:07:01;;;;;;;14.60;9.80;;;24.30;25.00;;;;;;5068382;28;20448;-77
2022/03/23 12:09:34;;;;;;;9.00;8.20;;;24.70;24.30;;;;;;5067949;28;20452;-77
2022/03/23 12:12:01;;;;;;;10.30;8.67;;;24.70;24.50;;;;;;5069290;28;20942;-78
2022/03/23 12:14:35;;;;;;;9.60;8.60;;;24.60;24.10;;;;;;5069635;28;20518;-76
2022/03/23 12:17:07;;;;;;;8.60;7.80;;;24.50;24.30;;;;;;5067818;28;20520;-76
2022/03/23 12:19:58;;;;;;;8.97;7.80;;;24.90;24.70;;;;;;5068691;28;21105;-76
2022/03/23 12:22:32;;;;;;;13.47;8.90;;;25.00;24.70;;;;;;5068630;28;20414;-77
2022/03/23 12:25:33;;;;;;;9.70;8.30;;;25.10;23.80;;;;;;5068667;28;20474;-76
2022/03/23 12:28:24;;;;;;;12.13;8.57;;;25.30;24.30;;;;;;5026326;28;20428;-78
2022/03/23 12:30:56;;;;;;;9.13;8.10;;;25.10;23.70;;;;;;5066896;28;20482;-77
2022/03/23 12:33:22;;;;;;;15.67;8.83;;;25.10;23.60;;;;;;5069518;28;20425;-77
2022/03/23 12:35:48;;;;;;;9.37;7.87;;;24.90;24.20;;;;;;5067856;28;20929;-77
2022/03/23 12:38:22;;;;;;;8.73;7.83;;;24.80;23.70;;;;;;5068463;28;20517;-78
2022/03/23 12:40:48;;;;;;;10.53;9.50;;;24.70;23.90;;;;;;5067167;28;20468;-78
2022/03/23 12:43:42;;;;;;;10.37;9.20;;;24.90;23.60;;;;;;5067546;28;20460;-77
2022/03/23 12:46:19;;;;;;;10.23;8.93;;;24.90;24.10;;;;;;5066914;28;20431;-77
2022/03/23 12:57:53;;;;;;;15.07;9.20;;;24.60;23.60;;;;;;5069346;28;20472;-77
2022/03/23 13:00:30;;;;;;;14.23;10.80;;;24.70;24.50;;;;;;5067532;28;20915;-78
2022/03/23 13:03:07;;;;;;;10.93;9.83;;;24.70;24.40;;;;;;5069157;28;20479;-78
2022/03/23 13:05:35;;;;;;;12.13;9.43;;;24.90;24.50;;;;;;5069916;28;20433;-77
2022/03/23 13:08:22;;;;;;;12.93;11.50;;;24.80;24.10;;;;;;5069532;28;20991;-78
2022/03/23 13:10:58;;;;;;;15.87;9.53;;;24.60;23.70;;;;;;5067868;28;21021;-78
2022/03/23 13:13:37;;;;;;;12.93;9.30;;;24.80;24.00;;;;;;5069731;28;20564;-77
2022/03/23 13:16:13;;;;;;;9.90;8.23;;;24.90;24.50;;;;;;5067684;28;20475;-77
2022/03/23 13:18:39;;;;;;;16.93;9.23;;;24.70;24.20;;;;;;5067246;28;20459;-78
2022/03/23 13:21:15;;;;;;;9.60;8.50;;;24.50;24.40;;;;;;5069006;28;20465;-78